Time;durP1;ratioP1;P1;durP2;ratioP2;P2;SDS_P1;SDS_P2;PMS_P1;PMS_P2;Temp;Humidity;BMP_temperature;BMP_pressure;BME280_temperature;BME280_humidity;BME280_pressure;Samples;Min_cycle;Max_cycle;Signal;HPM_P1;HPM_P2
2022/06/22 00:02:12;;;;;;;13.15;5.95;;;;;;;17.14;100.00;96186.59;5043573;28;20076;-70
2022/06/22 00:04:54;;;;;;;15.00;5.18;;;;;;;17.35;100.00;96182.69;5043240;28;20049;-71
2022/06/22 00:07:33;;;;;;;16.08;5.13;;;;;;;17.42;100.00;96190.84;5042049;28;20044;-71
2022/06/22 00:10:04;;;;;;;14.00;4.88;;;;;;;17.48;100.00;96182.81;5039938;28;20156;-69
2022/06/22 00:12:31;;;;;;;14.63;5.90;;;;;;;17.50;100.00;96183.19;5055172;28;20083;-69
2022/06/22 00:15:01;;;;;;;12.20;4.38;;;;;;;17.60;100.00;96181.44;5049290;28;20689;-70
2022/06/22 00:17:30;;;;;;;12.30;4.45;;;;;;;17.61;100.00;96183.78;5049256;28;20052;-70
2022/06/22 00:20:13;;;;;;;10.35;4.43;;;;;;;17.63;100.00;96170.28;5049011;28;20501;-71
2022/06/22 00:22:54;;;;;;;9.57;4.88;;;;;;;17.75;100.00;96168.84;5042465;28;20481;-71
2022/06/22 00:25:31;;;;;;;9.82;3.92;;;;;;;17.80;100.00;96157.25;5037696;28;20045;-70
2022/06/22 00:28:24;;;;;;;10.32;4.05;;;;;;;17.80;100.00;96156.50;5023892;28;20038;-71
2022/06/22 00:30:59;;;;;;;13.02;4.68;;;;;;;17.84;100.00;96138.56;5037915;28;20068;-69
2022/06/22 00:33:24;;;;;;;13.85;4.18;;;;;;;17.87;100.00;96136.97;5032642;28;20038;-69
2022/06/22 00:36:13;;;;;;;9.52;4.25;;;;;;;17.85;100.00;96139.38;5032262;28;20037;-69
2022/06/22 00:38:39;;;;;;;12.93;3.85;;;;;;;17.79;100.00;96133.56;5024392;28;20041;-70
2022/06/22 00:41:32;;;;;;;12.57;3.95;;;;;;;17.37;100.00;96138.75;5017132;28;20052;-69
2022/06/22 00:44:06;;;;;;;11.77;4.07;;;;;;;17.43;100.00;96139.03;5020071;28;20041;-68
2022/06/22 00:46:32;;;;;;;13.77;4.30;;;;;;;17.52;100.00;96142.00;5020597;28;20378;-69
2022/06/22 00:48:57;;;;;;;10.63;3.88;;;;;;;17.44;100.00;96143.38;5022367;28;20042;-70
2022/06/22 00:51:39;;;;;;;12.15;4.57;;;;;;;17.46;100.00;96138.19;5029175;28;20118;-69
2022/06/22 00:54:10;;;;;;;15.30;4.70;;;;;;;17.51;100.00;96135.69;5043768;28;20041;-68
2022/06/22 00:56:36;;;;;;;13.20;4.72;;;;;;;17.61;100.00;96133.94;5047019;28;20083;-71
2022/06/22 00:59:14;;;;;;;13.27;4.35;;;;;;;17.72;100.00;96136.47;5045909;28;20041;-70
2022/06/22 01:01:46;;;;;;;14.95;4.35;;;;;;;17.79;100.00;96139.09;5036521;28;20075;-70
2022/06/22 01:04:25;;;;;;;11.20;3.80;;;;;;;17.90;100.00;96127.81;5034883;28;20532;-69
2022/06/22 01:07:01;;;;;;;11.07;4.03;;;;;;;17.98;100.00;96115.34;5040916;28;20075;-69
2022/06/22 01:09:34;;;;;;;12.45;3.90;;;;;;;17.95;100.00;96125.31;5036737;28;20044;-70
2022/06/22 01:12:23;;;;;;;9.57;3.95;;;;;;;17.98;100.00;96115.34;5040312;28;20044;-70
2022/06/22 01:15:04;;;;;;;8.67;4.30;;;;;;;17.87;100.00;96123.91;5041737;28;20037;-67
2022/06/22 01:17:37;;;;;;;14.57;4.40;;;;;;;17.89;100.00;96115.16;5035459;28;20052;-70
2022/06/22 01:20:17;;;;;;;12.60;3.72;;;;;;;17.90;100.00;96123.06;5039494;28;20037;-68
2022/06/22 01:23:13;;;;;;;12.27;3.80;;;;;;;17.77;100.00;96130.41;5039649;28;20049;-70
2022/06/22 01:25:50;;;;;;;14.93;4.35;;;;;;;17.75;100.00;96141.94;5039298;28;20041;-69
2022/06/22 01:28:17;;;;;;;10.98;4.10;;;;;;;17.82;100.00;96141.00;5016986;28;20521;-69
2022/06/22 01:30:51;;;;;;;13.23;4.20;;;;;;;17.80;100.00;96143.41;5038398;28;20045;-68
2022/06/22 01:33:39;;;;;;;11.85;4.18;;;;;;;17.93;100.00;96152.69;5035979;28;20041;-67
2022/06/22 01:36:25;;;;;;;7.65;3.72;;;;;;;17.82;100.00;96143.75;5037801;28;20072;-67
2022/06/22 01:38:51;;;;;;;13.63;4.47;;;;;;;17.82;100.00;96138.22;5041355;28;20104;-70
2022/06/22 01:41:38;;;;;;;9.32;4.90;;;;;;;17.60;100.00;96134.34;5041519;28;20064;-71
2022/06/22 01:44:15;;;;;;;6.93;4.13;;;;;;;17.73;100.00;96135.25;5039680;28;20052;-67
2022/06/22 01:47:17;;;;;;;13.52;4.30;;;;;;;17.84;100.00;96146.09;5040520;28;20048;-69
2022/06/22 01:50:04;;;;;;;10.98;4.07;;;;;;;17.89;100.00;96159.50;5039317;28;20037;-70
2022/06/22 01:52:56;;;;;;;13.82;4.22;;;;;;;17.89;100.00;96151.94;5040788;28;20489;-70
2022/06/22 01:55:45;;;;;;;10.43;4.43;;;;;;;17.90;100.00;96156.28;5035894;28;20272;-71
2022/06/22 01:58:19;;;;;;;9.52;5.03;;;;;;;17.90;100.00;96159.06;5034819;28;20071;-70
2022/06/22 02:00:56;;;;;;;7.70;4.45;;;;;;;17.94;100.00;96161.75;5040540;28;20091;-68
2022/06/22 02:03:39;;;;;;;11.10;4.68;;;;;;;17.99;100.00;96166.00;5033066;28;20473;-69
2022/06/22 02:09:06;;;;;;;12.02;4.70;;;;;;;18.03;100.00;96153.66;5030933;28;20044;-71
2022/06/22 02:11:39;;;;;;;12.07;4.80;;;;;;;18.08;100.00;96146.81;5036078;28;20430;-70
2022/06/22 02:14:25;;;;;;;14.68;4.78;;;;;;;18.04;100.00;96144.13;5036287;28;20052;-68
2022/06/22 02:16:59;;;;;;;15.93;4.82;;;;;;;18.09;100.00;96138.06;5040805;28;20037;-69
2022/06/22 02:19:29;;;;;;;11.40;4.28;;;;;;;18.07;100.00;96132.16;5035655;28;20045;-69
2022/06/22 02:22:01;;;;;;;15.15;5.35;;;;;;;18.04;100.00;96126.72;5040005;28;20037;-68
2022/06/22 02:24:46;;;;;;;14.70;4.93;;;;;;;17.93;100.00;96138.03;5034849;28;20098;-70
2022/06/22 02:27:16;;;;;;;16.17;4.82;;;;;;;17.91;100.00;96132.91;5034147;28;20140;-69
2022/06/22 02:29:49;;;;;;;10.05;4.20;;;;;;;17.72;100.00;96125.41;5040130;28;20075;-68
2022/06/22 02:32:19;;;;;;;9.45;4.97;;;;;;;17.55;100.00;96125.31;5035319;28;20044;-69
2022/06/22 02:34:48;;;;;;;9.50;4.57;;;;;;;17.33;100.00;96132.50;5039900;28;20045;-68
2022/06/22 02:37:16;;;;;;;15.35;4.88;;;;;;;17.38;100.00;96132.78;5035061;28;20033;-69
2022/06/22 02:39:48;;;;;;;14.35;5.30;;;;;;;17.45;100.00;96129.09;5039025;28;20052;-69
2022/06/22 02:44:59;;;;;;;15.18;5.70;;;;;;;17.52;100.00;96140.03;5044552;28;20132;-71
2022/06/22 02:47:26;;;;;;;12.95;4.78;;;;;;;17.59;100.00;96147.41;5039601;28;20135;-70
2022/06/22 02:50:24;;;;;;;22.17;5.75;;;;;;;17.59;100.00;96144.63;5053675;28;20048;-70
2022/06/22 02:52:53;;;;;;;15.38;4.90;;;;;;;17.57;100.00;96142.31;5047891;28;20037;-69
2022/06/22 02:55:23;;;;;;;14.77;4.78;;;;;;;17.57;100.00;96145.06;5039795;28;20045;-69
2022/06/22 02:57:56;;;;;;;19.35;4.70;;;;;;;17.61;100.00;96146.97;5043795;28;20472;-70
2022/06/22 03:00:35;;;;;;;12.80;4.93;;;;;;;17.69;100.00;96151.94;5043024;28;20343;-69
2022/06/22 03:03:07;;;;;;;11.27;4.78;;;;;;;17.70;100.00;96155.50;5044811;28;20433;-72
2022/06/22 03:05:35;;;;;;;11.18;4.63;;;;;;;17.84;100.00;96162.72;5042508;28;20482;-70
2022/06/22 03:08:02;;;;;;;14.55;4.35;;;;;;;17.88;100.00;96147.63;5042693;28;20120;-70
2022/06/22 03:10:30;;;;;;;11.27;4.28;;;;;;;17.95;100.00;96152.22;5042215;28;20048;-69
2022/06/22 03:12:58;;;;;;;15.35;5.15;;;;;;;17.87;100.00;96156.38;5045098;28;20051;-68
2022/06/22 03:15:29;;;;;;;13.63;4.82;;;;;;;17.90;100.00;96156.28;5052470;28;20583;-68
2022/06/22 03:17:56;;;;;;;12.73;4.85;;;;;;;17.89;100.00;96151.94;5053890;28;20052;-69
2022/06/22 03:20:26;;;;;;;13.68;5.43;;;;;;;17.95;100.00;96157.75;5063147;28;20060;-70
2022/06/22 03:23:00;;;;;;;10.10;4.28;;;;;;;17.96;100.00;96156.56;5042407;28;20045;-69
2022/06/22 03:25:41;;;;;;;16.25;4.88;;;;;;;17.95;100.00;96158.56;5038051;28;20083;-69
2022/06/22 03:28:15;;;;;;;12.63;4.57;;;;;;;18.01;100.00;96164.38;5026573;28;20086;-70
2022/06/22 03:30:56;;;;;;;16.10;5.03;;;;;;;17.92;100.00;96162.19;5043812;28;20525;-70
2022/06/22 03:33:47;;;;;;;11.43;5.13;;;;;;;17.84;100.00;96162.72;5039755;28;20451;-69
2022/06/22 03:36:23;;;;;;;18.67;5.07;;;;;;;17.93;100.00;96165.72;5032050;28;20048;-69
2022/06/22 03:39:14;;;;;;;12.20;4.78;;;;;;;17.95;100.00;96155.78;5044127;28;20033;-68
2022/06/22 03:41:46;;;;;;;17.70;5.25;;;;;;;18.09;100.00;96160.22;5041545;28;20048;-69
2022/06/22 03:44:27;;;;;;;16.40;4.78;;;;;;;18.06;100.00;96166.66;5036480;28;20540;-70
2022/06/22 03:47:01;;;;;;;18.20;5.57;;;;;;;18.09;100.00;96165.78;5042447;28;20394;-70
2022/06/22 03:49:42;;;;;;;11.88;4.20;;;;;;;18.11;100.00;96157.03;5038147;28;20075;-70
2022/06/22 03:52:13;;;;;;;16.35;4.60;;;;;;;18.11;100.00;96166.16;5037274;28;20044;-69
2022/06/22 03:54:46;;;;;;;12.02;4.95;;;;;;;18.11;100.00;96159.81;5040094;28;20707;-69
2022/06/22 03:57:15;;;;;;;11.95;4.68;;;;;;;18.07;100.00;96157.09;5035563;28;20053;-70
2022/06/22 03:59:45;;;;;;;18.42;5.20;;;;;;;18.21;100.00;96146.94;5043167;28;20506;-68
2022/06/22 04:02:11;;;;;;;11.13;4.53;;;;;;;18.28;100.00;96144.00;5036653;28;20049;-68
2022/06/22 04:04:36;;;;;;;14.57;5.20;;;;;;;18.08;100.00;96153.13;5043314;28;20055;-68
2022/06/22 04:07:03;;;;;;;20.25;5.50;;;;;;;18.11;100.00;96151.50;5042393;28;20044;-69
2022/06/22 04:09:30;;;;;;;12.40;4.75;;;;;;;17.86;100.00;96149.25;5032349;28;20049;-68
2022/06/22 04:12:24;;;;;;;17.83;5.90;;;;;;;17.95;100.00;96149.44;5059859;22;20428;-68
2022/06/22 04:15:24;;;;;;;18.85;6.30;;;;;;;18.03;100.00;96155.63;5017038;28;20041;-66
2022/06/22 04:17:54;;;;;;;13.05;5.82;;;;;;;18.00;100.00;96143.41;5023737;28;20045;-67
2022/06/22 04:20:49;;;;;;;17.10;5.93;;;;;;;18.06;100.00;96149.22;5017545;28;20552;-67
2022/06/22 04:23:24;;;;;;;18.58;5.50;;;;;;;17.99;100.00;96155.72;5006484;28;20046;-66
2022/06/22 04:25:54;;;;;;;14.75;5.38;;;;;;;18.12;100.00;96176.00;5010495;28;20044;-66
2022/06/22 04:28:21;;;;;;;21.77;5.70;;;;;;;18.05;100.00;96175.38;4999459;28;20048;-67
2022/06/22 04:30:50;;;;;;;15.77;5.13;;;;;;;18.09;100.00;96171.31;5002429;28;20129;-66
2022/06/22 04:33:59;;;;;;;11.73;5.40;;;;;;;18.15;100.00;96164.06;4999123;28;20056;-67
2022/06/22 04:36:31;;;;;;;15.45;6.03;;;;;;;17.60;100.00;96159.28;4940256;28;20243;-65
2022/06/22 04:39:00;;;;;;;14.88;6.18;;;;;;;17.58;100.00;96173.53;4967048;28;20049;-66
2022/06/22 04:41:33;;;;;;;21.70;6.65;;;;;;;17.62;100.00;96177.00;4998977;28;20072;-67
2022/06/22 04:44:08;;;;;;;13.90;6.20;;;;;;;17.99;100.00;96172.34;5023547;28;20076;-72
2022/06/22 04:46:39;;;;;;;16.92;6.47;;;;;;;18.15;100.00;96199.31;5022499;28;20045;-68
2022/06/22 04:49:19;;;;;;;22.05;5.82;;;;;;;18.11;100.00;96182.78;5017879;28;20446;-64
2022/06/22 04:51:56;;;;;;;;;;;;;;;18.22;100.00;96198.38;5014408;28;20076;-67
2022/06/22 04:54:31;;;;;;;15.13;6.45;;;;;;;18.13;100.00;96207.25;5005172;28;20092;-66
2022/06/22 04:57:02;;;;;;;16.15;5.60;;;;;;;18.25;100.00;96201.06;5029510;28;20091;-68
2022/06/22 04:59:29;;;;;;;20.73;5.97;;;;;;;18.38;100.00;96206.72;5015741;28;20357;-67
2022/06/22 05:01:58;;;;;;;15.80;5.28;;;;;;;18.54;100.00;96197.66;5018393;28;20041;-67
2022/06/22 05:04:29;;;;;;;12.68;5.20;;;;;;;18.78;100.00;96208.59;5009192;28;20045;-65
2022/06/22 05:07:41;;;;;;;13.13;4.95;;;;;;;18.95;100.00;96207.41;5007290;28;20037;-68
2022/06/22 05:10:14;;;;;;;15.60;4.95;;;;;;;19.17;100.00;96202.09;5008889;28;20037;-65
2022/06/22 05:13:05;;;;;;;17.48;5.65;;;;;;;19.33;100.00;96200.53;5023086;28;20648;-69
2022/06/22 05:15:37;;;;;;;11.27;4.75;;;;;;;19.53;100.00;96201.16;5012415;28;20045;-67
2022/06/22 05:18:11;;;;;;;20.15;5.38;;;;;;;19.65;100.00;96213.56;5005407;28;20038;-65
2022/06/22 05:20:49;;;;;;;17.15;5.28;;;;;;;19.63;100.00;96211.22;5009888;28;20504;-66
2022/06/22 05:23:18;;;;;;;18.45;4.68;;;;;;;19.64;100.00;96223.91;5017709;28;20042;-68
2022/06/22 05:25:47;;;;;;;16.70;5.10;;;;;;;19.52;100.00;96221.84;5022424;28;20048;-69
2022/06/22 05:28:23;;;;;;;23.50;5.77;;;;;;;19.63;100.00;96216.00;5012540;28;20053;-67
2022/06/22 05:30:50;;;;;;;14.00;4.85;;;;;;;19.78;100.00;96208.84;5016042;28;20639;-67
2022/06/22 05:33:22;;;;;;;12.20;4.22;;;;;;;19.98;100.00;96210.69;5006584;28;20116;-68
2022/06/22 05:35:55;;;;;;;13.73;4.80;;;;;;;20.33;100.00;96214.44;5002828;28;20034;-68
2022/06/22 05:38:22;;;;;;;17.38;4.80;;;;;;;20.83;100.00;96222.47;4997540;28;20049;-66
2022/06/22 05:40:50;;;;;;;17.13;4.88;;;;;;;20.96;100.00;96226.03;5002951;28;20038;-66
2022/06/22 05:43:17;;;;;;;16.52;4.90;;;;;;;20.92;100.00;96231.72;5002080;28;20041;-67
2022/06/22 05:45:46;;;;;;;20.15;5.40;;;;;;;20.70;100.00;96234.38;5012224;28;20041;-66
2022/06/22 05:48:19;;;;;;;18.05;4.95;;;;;;;20.62;100.00;96233.06;5009134;28;20048;-66
2022/06/22 05:51:10;;;;;;;14.07;4.10;;;;;;;20.80;100.00;96240.84;5005253;28;20042;-66
2022/06/22 05:53:49;;;;;;;17.10;4.22;;;;;;;21.22;100.00;96240.69;5003498;28;20056;-66
2022/06/22 05:56:41;;;;;;;15.15;3.95;;;;;;;21.42;100.00;96232.06;5018427;28;20046;-66
2022/06/22 05:59:40;;;;;;;13.85;4.72;;;;;;;21.37;100.00;96238.19;4995737;28;20537;-66
2022/06/22 06:02:24;;;;;;;16.10;4.72;;;;;;;21.52;100.00;96247.66;5016118;28;20087;-66
2022/06/22 06:05:04;;;;;;;18.35;4.78;;;;;;;21.59;100.00;96238.28;5022260;28;20033;-67
2022/06/22 06:07:33;;;;;;;14.18;4.47;;;;;;;21.39;100.00;96239.31;5017800;28;20128;-67
2022/06/22 06:10:01;;;;;;;13.55;4.30;;;;;;;21.48;100.00;96230.31;5008413;28;20052;-67
2022/06/22 06:12:35;;;;;;;17.15;4.50;;;;;;;21.25;100.00;96225.88;5008452;28;20045;-67
2022/06/22 06:15:02;;;;;;;14.85;4.25;;;;;;;21.17;100.00;96225.31;5019200;28;20045;-67
2022/06/22 06:17:38;;;;;;;21.13;3.83;;;;;;;21.30;100.00;96230.88;5024981;28;20085;-67
2022/06/22 06:20:07;;;;;;;19.35;4.88;;;;;;;21.35;100.00;96233.06;5027208;28;20042;-65
2022/06/22 06:22:36;;;;;;;17.80;4.83;;;;;;;21.77;100.00;96232.84;5018487;28;20042;-68
2022/06/22 06:28:02;;;;;;;13.45;4.68;;;;;;;22.01;100.00;96214.91;5004694;28;20057;-66
2022/06/22 06:30:58;;;;;;;15.45;4.43;;;;;;;21.84;100.00;96220.69;4998191;28;20034;-67
2022/06/22 06:33:38;;;;;;;13.95;4.00;;;;;;;21.96;100.00;96219.06;5006181;28;20461;-68
2022/06/22 06:36:32;;;;;;;13.88;4.70;;;;;;;21.92;100.00;96219.19;5018392;28;20045;-64
2022/06/22 06:39:05;;;;;;;21.25;5.20;;;;;;;21.86;100.00;96228.56;5010214;28;20252;-66
2022/06/22 06:41:38;;;;;;;10.65;4.10;;;;;;;22.04;100.00;96225.13;4981091;28;20046;-65
2022/06/22 06:44:20;;;;;;;13.80;4.13;;;;;;;22.23;100.00;96232.38;4979505;28;20038;-64
2022/06/22 06:46:57;;;;;;;15.15;4.82;;;;;;;22.22;100.00;96244.81;4989636;28;20046;-65
2022/06/22 06:49:29;;;;;;;12.95;4.28;;;;;;;22.24;100.00;96239.53;4998563;28;20050;-66
2022/06/22 06:52:01;;;;;;;12.65;5.13;;;;;;;22.26;100.00;96247.47;5010433;28;20038;-66
2022/06/22 06:54:42;;;;;;;14.30;4.75;;;;;;;22.28;100.00;96239.44;4999269;28;20050;-66
2022/06/22 06:57:17;;;;;;;9.32;4.95;;;;;;;22.19;100.00;96242.91;4996861;28;20050;-65
2022/06/22 06:59:46;;;;;;;14.25;5.68;;;;;;;22.13;100.00;96244.75;5003430;28;20068;-66
2022/06/22 07:02:35;;;;;;;19.33;6.27;;;;;;;21.76;100.00;96245.22;5005333;28;20065;-66
2022/06/22 07:05:05;;;;;;;10.17;5.23;;;;;;;21.72;100.00;96246.59;5002372;28;20053;-66
2022/06/22 07:08:11;;;;;;;10.98;5.32;;;;;;;21.69;100.00;96239.91;5003023;28;20292;-66
2022/06/22 07:11:02;;;;;;;13.18;5.47;;;;;;;21.57;100.00;96235.16;5013386;28;20049;-71
2022/06/22 07:13:45;;;;;;;19.27;5.78;;;;;;;21.42;100.00;96228.50;5012266;28;20049;-64
2022/06/22 07:16:14;;;;;;;15.70;5.75;;;;;;;21.31;100.00;96229.63;5000765;28;20038;-67
2022/06/22 07:18:49;;;;;;;13.93;5.82;;;;;;;21.03;100.00;96222.22;5012491;28;20038;-68
2022/06/22 07:21:15;;;;;;;12.40;6.40;;;;;;;20.93;100.00;96224.13;5005533;28;20077;-68
2022/06/22 07:23:47;;;;;;;10.90;6.32;;;;;;;20.94;100.00;96214.53;5006216;28;20483;-68
2022/06/22 07:26:51;;;;;;;12.02;6.60;;;;;;;21.02;100.00;96212.34;5005752;28;20143;-69
2022/06/22 07:29:43;;;;;;;17.20;6.60;;;;;;;20.45;100.00;96207.31;4982327;28;20097;-67
2022/06/22 07:32:19;;;;;;;23.02;6.85;;;;;;;20.23;100.00;96201.63;5000205;28;20046;-67
2022/06/22 07:35:15;;;;;;;15.10;6.82;;;;;;;20.27;100.00;96195.94;5005719;28;20038;-67
2022/06/22 07:37:51;;;;;;;14.50;6.22;;;;;;;20.88;100.00;96199.66;5009068;28;20042;-68
2022/06/22 07:40:26;;;;;;;13.35;5.80;;;;;;;21.57;100.00;96196.94;5001877;28;20514;-67
2022/06/22 07:42:54;;;;;;;19.60;5.65;;;;;;;22.22;100.00;96188.22;5012303;28;20041;-68
2022/06/22 07:45:22;;;;;;;13.10;5.43;;;;;;;22.91;100.00;96190.72;5002778;28;20042;-67
2022/06/22 07:47:55;;;;;;;16.48;5.82;;;;;;;21.86;100.00;96193.13;5011119;28;20038;-67
2022/06/22 07:50:26;;;;;;;17.17;6.38;;;;;;;21.41;100.00;96197.09;5002741;28;20540;-67
2022/06/22 07:52:58;;;;;;;14.05;5.50;;;;;;;21.57;100.00;96199.72;5019301;28;20048;-67
2022/06/22 07:56:01;;;;;;;13.00;5.35;;;;;;;22.13;100.00;96214.84;5021246;28;20034;-70
2022/06/22 07:58:41;;;;;;;17.65;6.25;;;;;;;22.42;100.00;96229.72;5008394;28;20450;-69
2022/06/22 08:01:14;;;;;;;20.48;6.05;;;;;;;22.40;100.00;96224.63;5004561;28;20056;-69
2022/06/22 08:03:51;;;;;;;10.65;5.65;;;;;;;22.36;100.00;96228.78;5009737;28;20065;-69
2022/06/22 08:06:25;;;;;;;20.35;6.20;;;;;;;22.23;100.00;96235.19;5011228;28;20046;-69
2022/06/22 08:09:02;;;;;;;14.18;5.72;;;;;;;21.99;100.00;96242.47;5016877;28;20038;-66
2022/06/22 08:11:39;;;;;;;19.02;6.45;;;;;;;21.88;100.00;96238.06;5009306;28;20143;-63
2022/06/22 08:14:11;;;;;;;13.00;5.90;;;;;;;21.87;100.00;96246.88;5019262;28;20663;-62
2022/06/22 08:16:43;;;;;;;16.30;6.55;;;;;;;21.80;100.00;96253.47;5042993;28;20052;-63
2022/06/22 08:19:10;;;;;;;14.27;6.18;;;;;;;21.75;100.00;96259.59;5036503;28;20107;-63
2022/06/22 08:21:45;;;;;;;17.60;6.85;;;;;;;21.65;100.00;96260.78;5009280;28;20505;-61
2022/06/22 08:24:12;;;;;;;23.45;6.95;;;;;;;21.48;100.00;96263.72;5000028;28;20061;-62
2022/06/22 08:26:38;;;;;;;14.80;7.93;;;;;;;21.49;100.00;96262.50;5002502;28;20041;-62
2022/06/22 08:29:05;;;;;;;28.95;8.32;;;;;;;21.42;100.00;96262.69;5004349;28;20038;-61
2022/06/22 08:31:46;;;;;;;18.20;7.43;;;;;;;21.44;100.00;96268.59;5005566;28;20057;-62
2022/06/22 08:34:16;;;;;;;24.65;7.63;;;;;;;21.43;100.00;96271.81;4984181;28;20427;-64
2022/06/22 08:36:47;;;;;;;14.27;7.28;;;;;;;21.50;100.00;96268.84;4984771;28;20110;-63
2022/06/22 08:39:23;;;;;;;18.52;7.38;;;;;;;21.69;100.00;96269.78;4979122;28;20161;-64
2022/06/22 08:42:15;;;;;;;21.73;7.07;;;;;;;21.75;100.00;96284.69;5010764;28;20041;-64
2022/06/22 08:44:59;;;;;;;18.92;7.10;;;;;;;21.65;100.00;96285.88;4997460;28;20039;-64
2022/06/22 08:48:05;;;;;;;15.23;7.28;;;;;;;21.67;100.00;96288.97;5001452;28;20136;-64
2022/06/22 08:51:14;;;;;;;17.52;6.88;;;;;;;21.62;100.00;96293.09;5003930;28;20052;-64
2022/06/22 08:54:10;;;;;;;14.20;7.13;;;;;;;21.52;100.00;96299.84;4994300;28;20490;-63
2022/06/22 08:57:01;;;;;;;19.02;7.82;;;;;;;21.39;100.00;96317.31;5003240;28;20092;-64
2022/06/22 08:59:52;;;;;;;13.95;6.93;;;;;;;21.27;100.00;96317.34;4997073;28;20041;-65
2022/06/22 09:02:45;;;;;;;24.23;8.13;;;;;;;21.27;100.00;96326.47;5013831;28;20046;-65
2022/06/22 09:05:22;;;;;;;21.83;8.18;;;;;;;21.06;100.00;96329.91;5008337;28;20036;-64
2022/06/22 09:07:52;;;;;;;23.02;8.35;;;;;;;20.80;100.00;96329.91;5007820;28;20470;-66
2022/06/22 09:10:50;;;;;;;17.45;8.02;;;;;;;20.81;100.00;96340.59;5012463;28;20080;-66
2022/06/22 09:13:31;;;;;;;20.25;9.85;;;;;;;20.99;100.00;96342.03;4987399;28;20503;-65
2022/06/22 09:16:02;;;;;;;17.30;9.05;;;;;;;20.95;100.00;96344.16;5003674;28;20046;-65
2022/06/22 09:19:02;;;;;;;17.50;8.38;;;;;;;20.94;100.00;96340.59;4998277;28;20069;-66
2022/06/22 09:21:39;;;;;;;;;;;;;;;21.05;100.00;96345.06;5009532;28;20041;-66
2022/06/22 09:24:18;;;;;;;18.10;8.57;;;;;;;21.24;100.00;96354.41;4997297;28;19913;-66
2022/06/22 09:26:49;;;;;;;21.67;9.27;;;;;;;21.26;100.00;96349.19;5001421;28;20069;-66
2022/06/22 09:29:39;;;;;;;22.27;9.07;;;;;;;21.23;100.00;96358.41;4998040;28;20041;-66
2022/06/22 09:32:17;;;;;;;17.70;8.48;;;;;;;21.15;100.00;96353.06;4998625;28;20060;-68
2022/06/22 09:35:06;;;;;;;22.13;9.15;;;;;;;21.24;100.00;96343.28;4985680;28;20042;-66
2022/06/22 09:38:16;;;;;;;21.02;8.45;;;;;;;21.23;100.00;96334.16;4983125;28;20096;-66
2022/06/22 09:40:50;;;;;;;21.73;9.57;;;;;;;21.29;100.00;96337.16;4981553;28;20046;-67
2022/06/22 09:43:44;;;;;;;22.27;9.88;;;;;;;21.33;100.00;96344.16;4978125;28;20096;-65
2022/06/22 09:46:25;;;;;;;18.42;9.30;;;;;;;21.35;100.00;96338.16;4975210;28;20041;-65
2022/06/22 09:49:02;;;;;;;21.80;8.00;;;;;;;21.28;100.00;96339.16;4990325;28;20066;-65
2022/06/22 09:51:51;;;;;;;20.20;7.43;;;;;;;21.23;100.00;96338.94;4992301;28;20054;-66
2022/06/22 09:57:35;;;;;;;19.75;5.38;;;;;;;20.72;100.00;96357.16;4977888;28;20042;-66
2022/06/22 10:00:08;;;;;;;22.58;5.95;;;;;;;20.89;100.00;96357.09;4980328;28;20046;-65
2022/06/22 10:02:43;;;;;;;18.58;4.63;;;;;;;20.72;100.00;96353.59;4982048;28;20077;-66
2022/06/22 10:05:33;;;;;;;16.30;4.63;;;;;;;20.60;100.00;96350.31;4977277;28;20049;-65
2022/06/22 10:08:24;;;;;;;29.90;4.47;;;;;;;20.43;100.00;96351.59;4995590;28;20042;-66
2022/06/22 10:11:03;;;;;;;18.60;4.60;;;;;;;20.72;100.00;96364.72;5010604;28;20545;-65
2022/06/22 10:16:34;;;;;;;25.02;4.00;;;;;;;20.90;100.00;96364.97;5000251;28;20050;-68
2022/06/22 10:19:22;;;;;;;19.55;3.97;;;;;;;21.00;100.00;96363.88;4981737;28;20049;-66
2022/06/22 10:21:50;;;;;;;21.40;3.40;;;;;;;21.06;100.00;96366.13;5013187;28;20045;-67
2022/06/22 10:24:44;;;;;;;23.45;4.38;;;;;;;21.26;100.00;96368.69;5018134;28;20057;-66
2022/06/22 10:27:15;;;;;;;18.02;3.75;;;;;;;21.38;100.00;96368.66;5029808;28;20370;-67
2022/06/22 10:30:05;;;;;;;21.63;4.57;;;;;;;21.45;100.00;96372.47;5026968;28;20048;-67
2022/06/22 10:32:55;;;;;;;25.23;3.60;;;;;;;21.38;100.00;96371.47;5019726;28;20038;-68
2022/06/22 10:35:23;;;;;;;;;;;;;;;21.47;100.00;96373.59;5015773;28;20044;-67
2022/06/22 10:37:56;;;;;;;22.95;4.00;;;;;;;21.56;100.00;96373.69;5020995;28;20011;-67
2022/06/22 10:46:44;;;;;;;11.18;3.35;;;;;;;22.07;100.00;96377.59;5020499;28;20474;-67
2022/06/22 10:49:10;;;;;;;18.77;5.05;;;;;;;22.31;100.00;96381.56;5014385;28;20128;-67
2022/06/22 10:51:41;;;;;;;17.95;4.65;;;;;;;22.54;100.00;96382.34;5018950;28;20157;-68
2022/06/22 10:54:49;;;;;;;22.02;4.25;;;;;;;22.55;100.00;96385.94;5015509;28;20037;-68
2022/06/22 10:57:29;;;;;;;21.73;4.85;;;;;;;22.94;100.00;96372.53;5015722;28;20038;-68
2022/06/22 11:00:14;;;;;;;;;;;;;;;22.89;100.00;96369.09;5022003;28;20465;-67
2022/06/22 11:03:18;;;;;;;25.98;4.50;;;;;;;22.99;100.00;96369.91;5021764;28;19920;-67
2022/06/22 11:06:08;;;;;;;22.63;4.68;;;;;;;22.99;100.00;96374.72;5001036;28;20092;-66
2022/06/22 11:08:58;;;;;;;21.60;4.25;;;;;;;22.97;100.00;96377.97;5002746;28;20074;-67
2022/06/22 11:11:45;;;;;;;21.45;4.80;;;;;;;22.90;100.00;96367.88;5019675;28;20576;-65
2022/06/22 11:14:23;;;;;;;26.98;3.92;;;;;;;23.01;100.00;96361.88;5019717;28;20092;-65
2022/06/22 11:17:20;;;;;;;19.53;4.10;;;;;;;23.08;100.00;96363.63;5024265;28;20037;-66
2022/06/22 11:20:10;;;;;;;30.40;4.90;;;;;;;23.25;100.00;96358.59;5025464;28;20125;-65
2022/06/22 11:22:48;;;;;;;26.25;4.47;;;;;;;23.48;100.00;96355.25;5019426;28;20048;-67
2022/06/22 11:31:49;;;;;;;19.30;3.83;;;;;;;23.69;100.00;96352.81;4982695;28;20066;-67
2022/06/22 11:34:24;;;;;;;19.45;3.75;;;;;;;24.12;100.00;96356.63;4982365;28;20050;-66
2022/06/22 11:37:46;;;;;;;19.30;3.83;;;;;;;24.43;98.61;96350.91;4985168;28;20100;-67
2022/06/22 11:40:24;;;;;;;14.02;3.03;;;;;;;24.34;97.90;96348.09;4918990;29;20040;-67
2022/06/22 11:42:58;;;;;;;14.20;3.30;;;;;;;23.23;100.00;96339.50;4924570;29;20059;-67
2022/06/22 11:45:51;;;;;;;26.13;4.05;;;;;;;22.62;100.00;96327.06;4954816;28;20038;-66
2022/06/22 11:48:45;;;;;;;24.33;3.60;;;;;;;22.99;100.00;96330.03;4978790;28;20132;-66
2022/06/22 11:51:20;;;;;;;18.67;3.63;;;;;;;21.84;100.00;96328.59;4979943;28;20075;-66
2022/06/22 11:54:16;;;;;;;16.20;3.53;;;;;;;21.50;100.00;96313.41;4990495;28;20046;-66
2022/06/22 11:57:14;;;;;;;24.88;4.18;;;;;;;21.14;100.00;96318.13;4984590;28;20050;-65
2022/06/22 12:00:17;;;;;;;25.25;4.72;;;;;;;21.12;100.00;96319.78;4961033;28;20046;-68
2022/06/22 12:03:02;;;;;;;25.48;4.72;;;;;;;20.71;100.00;96318.66;4983954;28;20046;-67
2022/06/22 12:05:45;;;;;;;27.73;4.47;;;;;;;20.74;100.00;96317.75;4984239;28;20046;-68
2022/06/22 12:08:29;;;;;;;27.30;3.95;;;;;;;20.75;100.00;96322.88;4993020;28;20046;-67
2022/06/22 12:11:24;;;;;;;20.15;4.25;;;;;;;20.83;100.00;96325.44;5019306;28;20129;-69
2022/06/22 12:17:44;;;;;;;21.23;4.15;;;;;;;21.17;100.00;96322.00;4981695;28;20050;-68
2022/06/22 12:20:51;;;;;;;26.25;4.20;;;;;;;20.59;100.00;96315.38;4994824;28;20132;-67
2022/06/22 12:23:57;;;;;;;23.63;4.57;;;;;;;20.46;100.00;96302.66;4957933;28;20039;-67
2022/06/22 12:26:42;;;;;;;20.55;4.18;;;;;;;20.75;100.00;96306.19;4998867;28;20164;-67
2022/06/22 12:29:16;;;;;;;15.18;3.55;;;;;;;20.89;100.00;96304.97;5002617;28;20050;-67
2022/06/22 12:32:17;;;;;;;25.50;4.80;;;;;;;21.06;100.00;96307.66;5006055;28;20129;-66
2022/06/22 12:35:12;;;;;;;17.48;4.25;;;;;;;21.06;100.00;96310.44;5005174;28;20037;-66
2022/06/22 12:37:43;;;;;;;29.90;4.88;;;;;;;21.56;100.00;96308.84;5021243;28;20045;-67
2022/06/22 12:40:09;;;;;;;22.35;4.68;;;;;;;21.46;100.00;96310.75;5018691;28;20033;-66
2022/06/22 12:42:54;;;;;;;18.95;4.65;;;;;;;21.19;100.00;96302.84;5031767;28;20072;-67
2022/06/22 12:45:29;;;;;;;25.88;4.35;;;;;;;21.99;100.00;96306.59;5021983;28;20104;-66